sensor_id;sensor_type;location;lat;lon;timestamp;pressure;altitude;pressure_sealevel;temperature;humidity
62592;BME280;48659;41.622;2.276;2023-07-30T00:00:25;99732.37;;;27.11;49.33
62592;BME280;48659;41.622;2.276;2023-07-30T00:02:52;99729.76;;;27.02;49.73
62592;BME280;48659;41.622;2.276;2023-07-30T00:05:20;99729.41;;;27.83;48.04
62592;BME280;48659;41.622;2.276;2023-07-30T00:07:47;99725.37;;;28.46;47.45
62592;BME280;48659;41.622;2.276;2023-07-30T00:10:16;99725.62;;;27.84;46.47
62592;BME280;48659;41.622;2.276;2023-07-30T00:12:43;99725.51;;;29.17;46.47
62592;BME280;48659;41.622;2.276;2023-07-30T00:15:10;99727.18;;;28.36;45.94
62592;BME280;48659;41.622;2.276;2023-07-30T00:17:37;99726.65;;;29.30;46.08
62592;BME280;48659;41.622;2.276;2023-07-30T00:20:06;99728.36;;;28.36;46.18
62592;BME280;48659;41.622;2.276;2023-07-30T00:22:34;99727.87;;;28.72;45.42
62592;BME280;48659;41.622;2.276;2023-07-30T00:25:11;99731.34;;;28.13;45.65
62592;BME280;48659;41.622;2.276;2023-07-30T00:27:39;99730.30;;;28.66;45.00
62592;BME280;48659;41.622;2.276;2023-07-30T00:30:07;99734.49;;;26.62;48.15
62592;BME280;48659;41.622;2.276;2023-07-30T00:32:35;99731.98;;;26.02;49.55
62592;BME280;48659;41.622;2.276;2023-07-30T00:35:09;99735.18;;;27.02;47.55
62592;BME280;48659;41.622;2.276;2023-07-30T00:37:37;99737.91;;;26.28;50.41
62592;BME280;48659;41.622;2.276;2023-07-30T00:40:18;99733.71;;;27.08;47.49
62592;BME280;48659;41.622;2.276;2023-07-30T00:42:45;99733.34;;;28.31;46.10
62592;BME280;48659;41.622;2.276;2023-07-30T00:45:13;99738.56;;;26.10;50.36
62592;BME280;48659;41.622;2.276;2023-07-30T00:47:41;99733.32;;;26.42;49.82
62592;BME280;48659;41.622;2.276;2023-07-30T00:50:18;99733.05;;;26.89;48.12
62592;BME280;48659;41.622;2.276;2023-07-30T00:52:46;99733.68;;;27.57;47.37
62592;BME280;48659;41.622;2.276;2023-07-30T00:55:15;99737.29;;;24.24;54.04
62592;BME280;48659;41.622;2.276;2023-07-30T00:57:42;99735.09;;;25.20;54.26
62592;BME280;48659;41.622;2.276;2023-07-30T01:00:14;99739.09;;;25.30;53.49
62592;BME280;48659;41.622;2.276;2023-07-30T01:02:43;99739.57;;;25.24;53.91
62592;BME280;48659;41.622;2.276;2023-07-30T01:05:10;99739.05;;;24.44;55.60
62592;BME280;48659;41.622;2.276;2023-07-30T01:07:38;99739.33;;;24.98;53.86
62592;BME280;48659;41.622;2.276;2023-07-30T01:10:07;99739.64;;;26.31;51.05
62592;BME280;48659;41.622;2.276;2023-07-30T01:12:35;99739.56;;;26.20;50.82
62592;BME280;48659;41.622;2.276;2023-07-30T01:15:10;99741.81;;;25.28;51.59
62592;BME280;48659;41.622;2.276;2023-07-30T01:17:38;99740.84;;;27.03;49.56
62592;BME280;48659;41.622;2.276;2023-07-30T01:20:06;99742.65;;;25.81;51.60
62592;BME280;48659;41.622;2.276;2023-07-30T01:22:34;99747.09;;;25.29;53.55
62592;BME280;48659;41.622;2.276;2023-07-30T01:25:02;99744.35;;;25.91;52.27
62592;BME280;48659;41.622;2.276;2023-07-30T01:27:33;99747.24;;;25.49;52.64
62592;BME280;48659;41.622;2.276;2023-07-30T01:30:08;99738.29;;;26.32;50.10
62592;BME280;48659;41.622;2.276;2023-07-30T01:32:39;99743.14;;;25.74;51.73
62592;BME280;48659;41.622;2.276;2023-07-30T01:35:13;99740.08;;;26.02;51.04
62592;BME280;48659;41.622;2.276;2023-07-30T01:37:43;99738.02;;;24.83;53.69
62592;BME280;48659;41.622;2.276;2023-07-30T01:40:11;99735.89;;;24.82;54.03
62592;BME280;48659;41.622;2.276;2023-07-30T01:42:39;99738.36;;;25.21;52.22
62592;BME280;48659;41.622;2.276;2023-07-30T01:45:10;99736.10;;;24.30;54.26
62592;BME280;48659;41.622;2.276;2023-07-30T01:47:38;99736.63;;;25.45;52.36
62592;BME280;48659;41.622;2.276;2023-07-30T01:50:06;99731.73;;;24.27;54.58
62592;BME280;48659;41.622;2.276;2023-07-30T01:52:34;99731.23;;;25.37;52.94
62592;BME280;48659;41.622;2.276;2023-07-30T01:55:03;99727.44;;;25.38;52.14
62592;BME280;48659;41.622;2.276;2023-07-30T01:57:30;99723.70;;;24.33;54.98
62592;BME280;48659;41.622;2.276;2023-07-30T01:59:58;99728.86;;;24.91;54.33
62592;BME280;48659;41.622;2.276;2023-07-30T02:02:26;99728.32;;;26.39;51.05
62592;BME280;48659;41.622;2.276;2023-07-30T02:04:53;99725.70;;;26.16;50.14
62592;BME280;48659;41.622;2.276;2023-07-30T02:07:21;99722.43;;;27.28;47.24
62592;BME280;48659;41.622;2.276;2023-07-30T02:09:49;99723.34;;;26.41;47.84
62592;BME280;48659;41.622;2.276;2023-07-30T02:12:17;99722.49;;;26.45;46.97
62592;BME280;48659;41.622;2.276;2023-07-30T02:14:44;99724.50;;;27.59;45.50
62592;BME280;48659;41.622;2.276;2023-07-30T02:17:12;99727.57;;;25.86;48.46
62592;BME280;48659;41.622;2.276;2023-07-30T02:19:39;99724.07;;;26.49;47.46
62592;BME280;48659;41.622;2.276;2023-07-30T02:22:07;99728.22;;;26.13;47.89
62592;BME280;48659;41.622;2.276;2023-07-30T02:24:35;99724.29;;;27.30;45.83
62592;BME280;48659;41.622;2.276;2023-07-30T02:27:03;99727.64;;;26.46;46.82
62592;BME280;48659;41.622;2.276;2023-07-30T02:29:31;99734.79;;;26.48;46.85
62592;BME280;48659;41.622;2.276;2023-07-30T02:31:58;99740.82;;;26.31;47.78
62592;BME280;48659;41.622;2.276;2023-07-30T02:34:26;99743.33;;;26.70;47.26
62592;BME280;48659;41.622;2.276;2023-07-30T02:36:54;99747.39;;;25.96;48.35
62592;BME280;48659;41.622;2.276;2023-07-30T02:42:48;99749.01;;;25.25;48.75
62592;BME280;48659;41.622;2.276;2023-07-30T02:45:22;99747.71;;;26.05;47.25
62592;BME280;48659;41.622;2.276;2023-07-30T02:47:50;99747.38;;;26.42;46.74
62592;BME280;48659;41.622;2.276;2023-07-30T02:50:18;99743.80;;;26.63;45.25
62592;BME280;48659;41.622;2.276;2023-07-30T02:52:46;99743.99;;;26.82;46.08
62592;BME280;48659;41.622;2.276;2023-07-30T02:55:14;99745.84;;;27.61;43.96
62592;BME280;48659;41.622;2.276;2023-07-30T02:57:41;99749.57;;;28.12;43.47
62592;BME280;48659;41.622;2.276;2023-07-30T03:00:09;99748.43;;;27.71;43.64
62592;BME280;48659;41.622;2.276;2023-07-30T03:02:37;99750.21;;;28.09;42.87
62592;BME280;48659;41.622;2.276;2023-07-30T03:05:05;99754.31;;;27.78;43.06
62592;BME280;48659;41.622;2.276;2023-07-30T03:07:33;99753.44;;;27.86;43.11
62592;BME280;48659;41.622;2.276;2023-07-30T03:10:01;99756.50;;;28.20;42.16
62592;BME280;48659;41.622;2.276;2023-07-30T03:12:28;99756.40;;;27.75;42.85
62592;BME280;48659;41.622;2.276;2023-07-30T03:14:56;99758.21;;;27.70;43.04
62592;BME280;48659;41.622;2.276;2023-07-30T03:17:24;99758.08;;;27.58;43.15
62592;BME280;48659;41.622;2.276;2023-07-30T03:19:52;99758.87;;;28.03;42.54
62592;BME280;48659;41.622;2.276;2023-07-30T03:22:25;99757.07;;;27.60;42.42
62592;BME280;48659;41.622;2.276;2023-07-30T03:24:54;99756.90;;;28.31;41.71
62592;BME280;48659;41.622;2.276;2023-07-30T03:27:22;99756.14;;;27.41;42.43
62592;BME280;48659;41.622;2.276;2023-07-30T03:29:50;99761.01;;;25.88;46.02
62592;BME280;48659;41.622;2.276;2023-07-30T03:32:18;99762.27;;;26.03;45.35
62592;BME280;48659;41.622;2.276;2023-07-30T03:34:45;99758.68;;;27.40;43.90
62592;BME280;48659;41.622;2.276;2023-07-30T03:37:12;99758.89;;;27.10;43.66
62592;BME280;48659;41.622;2.276;2023-07-30T03:39:40;99761.94;;;28.01;41.95
62592;BME280;48659;41.622;2.276;2023-07-30T03:42:08;99767.91;;;26.33;46.10
62592;BME280;48659;41.622;2.276;2023-07-30T03:44:35;99771.71;;;25.89;47.15
62592;BME280;48659;41.622;2.276;2023-07-30T03:47:03;99773.96;;;25.87;47.35
62592;BME280;48659;41.622;2.276;2023-07-30T03:49:36;99773.19;;;24.53;49.06
62592;BME280;48659;41.622;2.276;2023-07-30T03:52:05;99774.97;;;25.57;49.06
62592;BME280;48659;41.622;2.276;2023-07-30T03:54:32;99780.70;;;25.44;48.31
62592;BME280;48659;41.622;2.276;2023-07-30T03:57:00;99785.93;;;26.33;46.84
62592;BME280;48659;41.622;2.276;2023-07-30T03:59:28;99787.06;;;26.65;45.59
62592;BME280;48659;41.622;2.276;2023-07-30T04:01:55;99781.08;;;27.55;44.20
62592;BME280;48659;41.622;2.276;2023-07-30T04:04:23;99778.09;;;27.71;44.07
62592;BME280;48659;41.622;2.276;2023-07-30T04:06:51;99776.42;;;27.29;44.29
62592;BME280;48659;41.622;2.276;2023-07-30T04:09:19;99776.18;;;26.72;45.02
62592;BME280;48659;41.622;2.276;2023-07-30T04:11:47;99782.13;;;26.42;45.39
62592;BME280;48659;41.622;2.276;2023-07-30T04:14:15;99788.55;;;25.97;46.89
62592;BME280;48659;41.622;2.276;2023-07-30T04:16:43;99791.57;;;26.55;45.77
62592;BME280;48659;41.622;2.276;2023-07-30T04:19:10;99800.43;;;25.14;48.81
62592;BME280;48659;41.622;2.276;2023-07-30T04:21:38;99801.69;;;25.73;48.08
62592;BME280;48659;41.622;2.276;2023-07-30T04:24:06;99802.34;;;26.18;47.28
62592;BME280;48659;41.622;2.276;2023-07-30T04:26:33;99808.14;;;26.61;45.72
62592;BME280;48659;41.622;2.276;2023-07-30T04:29:00;99810.94;;;26.09;46.53
62592;BME280;48659;41.622;2.276;2023-07-30T04:31:29;99809.66;;;26.61;46.05
62592;BME280;48659;41.622;2.276;2023-07-30T04:33:56;99816.30;;;26.82;45.55
62592;BME280;48659;41.622;2.276;2023-07-30T04:36:24;99820.17;;;25.14;47.97
62592;BME280;48659;41.622;2.276;2023-07-30T04:38:51;99823.36;;;25.78;47.62
62592;BME280;48659;41.622;2.276;2023-07-30T04:41:19;99824.51;;;26.30;46.87
62592;BME280;48659;41.622;2.276;2023-07-30T04:43:47;99825.77;;;26.89;45.75
62592;BME280;48659;41.622;2.276;2023-07-30T04:46:15;99833.31;;;26.46;46.50
62592;BME280;48659;41.622;2.276;2023-07-30T04:48:42;99838.40;;;26.16;46.31
62592;BME280;48659;41.622;2.276;2023-07-30T04:51:10;99837.42;;;26.03;46.88
62592;BME280;48659;41.622;2.276;2023-07-30T04:53:37;99837.04;;;25.90;46.90
62592;BME280;48659;41.622;2.276;2023-07-30T04:56:05;99838.20;;;26.58;46.54
62592;BME280;48659;41.622;2.276;2023-07-30T04:58:33;99842.39;;;26.39;46.00
62592;BME280;48659;41.622;2.276;2023-07-30T05:01:00;99844.03;;;27.24;45.09
62592;BME280;48659;41.622;2.276;2023-07-30T05:03:28;99846.67;;;26.11;46.10
62592;BME280;48659;41.622;2.276;2023-07-30T05:05:56;99848.67;;;26.18;46.03
62592;BME280;48659;41.622;2.276;2023-07-30T05:08:24;99844.21;;;26.88;44.14
62592;BME280;48659;41.622;2.276;2023-07-30T05:10:52;99848.37;;;26.97;44.61
62592;BME280;48659;41.622;2.276;2023-07-30T05:13:24;99849.72;;;25.83;45.94
62592;BME280;48659;41.622;2.276;2023-07-30T05:15:51;99850.33;;;26.29;45.89
62592;BME280;48659;41.622;2.276;2023-07-30T05:18:18;99851.23;;;26.63;45.98
62592;BME280;48659;41.622;2.276;2023-07-30T05:20:46;99850.13;;;26.76;44.98
62592;BME280;48659;41.622;2.276;2023-07-30T05:23:15;99855.31;;;27.10;44.49
62592;BME280;48659;41.622;2.276;2023-07-30T05:25:42;99860.58;;;26.58;44.51
62592;BME280;48659;41.622;2.276;2023-07-30T05:28:10;99863.51;;;26.95;44.18
62592;BME280;48659;41.622;2.276;2023-07-30T05:30:38;99863.92;;;26.73;44.89
62592;BME280;48659;41.622;2.276;2023-07-30T05:33:06;99868.05;;;24.49;49.53
62592;BME280;48659;41.622;2.276;2023-07-30T05:35:33;99865.75;;;25.99;47.08
62592;BME280;48659;41.622;2.276;2023-07-30T05:38:00;99871.63;;;26.60;45.87
62592;BME280;48659;41.622;2.276;2023-07-30T05:40:28;99870.02;;;27.42;44.08
62592;BME280;48659;41.622;2.276;2023-07-30T05:42:56;99872.44;;;26.87;44.80
62592;BME280;48659;41.622;2.276;2023-07-30T05:45:23;99869.66;;;27.38;43.29
62592;BME280;48659;41.622;2.276;2023-07-30T05:47:51;99875.91;;;27.86;42.27
62592;BME280;48659;41.622;2.276;2023-07-30T05:50:28;99878.02;;;27.64;41.94
62592;BME280;48659;41.622;2.276;2023-07-30T05:52:56;99879.18;;;27.72;42.85
62592;BME280;48659;41.622;2.276;2023-07-30T05:55:23;99879.99;;;27.47;43.16
62592;BME280;48659;41.622;2.276;2023-07-30T05:57:51;99878.39;;;28.62;41.05
62592;BME280;48659;41.622;2.276;2023-07-30T06:00:18;99874.95;;;29.70;39.88
62592;BME280;48659;41.622;2.276;2023-07-30T06:02:46;99881.53;;;29.20;39.97
62592;BME280;48659;41.622;2.276;2023-07-30T06:05:14;99884.41;;;29.48;39.30
62592;BME280;48659;41.622;2.276;2023-07-30T06:07:41;99891.36;;;29.04;40.72
62592;BME280;48659;41.622;2.276;2023-07-30T06:10:09;99888.73;;;28.93;41.25
62592;BME280;48659;41.622;2.276;2023-07-30T06:12:37;99892.13;;;28.28;40.99
62592;BME280;48659;41.622;2.276;2023-07-30T06:15:08;99891.16;;;29.81;38.90
62592;BME280;48659;41.622;2.276;2023-07-30T06:17:35;99895.30;;;28.67;41.13
62592;BME280;48659;41.622;2.276;2023-07-30T06:20:03;99901.37;;;28.94;40.17
62592;BME280;48659;41.622;2.276;2023-07-30T06:22:36;99903.99;;;28.29;40.93
62592;BME280;48659;41.622;2.276;2023-07-30T06:25:04;99910.24;;;27.02;44.27
62592;BME280;48659;41.622;2.276;2023-07-30T06:27:32;99907.37;;;27.97;42.11
62592;BME280;48659;41.622;2.276;2023-07-30T06:29:59;99910.05;;;28.38;41.99
62592;BME280;48659;41.622;2.276;2023-07-30T06:32:27;99912.10;;;28.32;40.88
62592;BME280;48659;41.622;2.276;2023-07-30T06:34:54;99917.05;;;28.49;41.15
62592;BME280;48659;41.622;2.276;2023-07-30T06:37:22;99920.31;;;29.12;40.24
62592;BME280;48659;41.622;2.276;2023-07-30T06:39:49;99927.56;;;29.11;39.44
62592;BME280;48659;41.622;2.276;2023-07-30T06:42:18;99928.33;;;29.59;38.25
62592;BME280;48659;41.622;2.276;2023-07-30T06:44:45;99934.08;;;28.95;39.11
62592;BME280;48659;41.622;2.276;2023-07-30T06:47:13;99936.08;;;29.03;39.17
62592;BME280;48659;41.622;2.276;2023-07-30T06:49:41;99935.72;;;28.38;39.49
62592;BME280;48659;41.622;2.276;2023-07-30T06:52:08;99941.03;;;29.46;38.38
62592;BME280;48659;41.622;2.276;2023-07-30T06:54:36;99940.69;;;29.49;38.33
62592;BME280;48659;41.622;2.276;2023-07-30T06:57:04;99943.87;;;28.77;39.28
62592;BME280;48659;41.622;2.276;2023-07-30T06:59:33;99945.39;;;28.69;39.28
62592;BME280;48659;41.622;2.276;2023-07-30T07:02:01;99943.35;;;28.44;40.56
62592;BME280;48659;41.622;2.276;2023-07-30T07:04:28;99944.42;;;29.67;38.74
62592;BME280;48659;41.622;2.276;2023-07-30T07:06:56;99940.61;;;29.45;38.01
62592;BME280;48659;41.622;2.276;2023-07-30T07:09:24;99947.60;;;25.66;44.71
62592;BME280;48659;41.622;2.276;2023-07-30T07:11:52;99946.73;;;28.10;40.97
62592;BME280;48659;41.622;2.276;2023-07-30T07:14:19;99947.29;;;29.49;37.77
62592;BME280;48659;41.622;2.276;2023-07-30T07:16:47;99947.42;;;29.69;38.08
62592;BME280;48659;41.622;2.276;2023-07-30T07:19:15;99946.97;;;29.55;38.44
62592;BME280;48659;41.622;2.276;2023-07-30T07:21:42;99944.61;;;29.32;38.26
62592;BME280;48659;41.622;2.276;2023-07-30T07:24:10;99946.55;;;28.05;41.12
62592;BME280;48659;41.622;2.276;2023-07-30T07:26:38;99947.35;;;28.48;39.81
62592;BME280;48659;41.622;2.276;2023-07-30T07:29:05;99955.88;;;26.57;44.45
62592;BME280;48659;41.622;2.276;2023-07-30T07:31:33;99946.67;;;29.43;39.75
62592;BME280;48659;41.622;2.276;2023-07-30T07:34:01;99941.68;;;29.45;39.57
62592;BME280;48659;41.622;2.276;2023-07-30T07:36:28;99948.58;;;29.35;40.79
62592;BME280;48659;41.622;2.276;2023-07-30T07:38:56;99945.82;;;30.35;39.78
62592;BME280;48659;41.622;2.276;2023-07-30T07:41:24;99948.40;;;29.73;40.32
62592;BME280;48659;41.622;2.276;2023-07-30T07:43:51;99946.45;;;28.19;42.84
62592;BME280;48659;41.622;2.276;2023-07-30T07:46:19;99943.13;;;28.95;41.70
62592;BME280;48659;41.622;2.276;2023-07-30T07:48:47;99940.56;;;28.58;42.50
62592;BME280;48659;41.622;2.276;2023-07-30T07:51:16;99937.52;;;30.40;39.04
62592;BME280;48659;41.622;2.276;2023-07-30T07:53:43;99935.85;;;31.11;37.87
62592;BME280;48659;41.622;2.276;2023-07-30T07:56:11;99932.69;;;29.70;39.14
62592;BME280;48659;41.622;2.276;2023-07-30T07:58:38;99932.96;;;29.82;39.10
62592;BME280;48659;41.622;2.276;2023-07-30T08:01:06;99931.32;;;29.65;39.64
62592;BME280;48659;41.622;2.276;2023-07-30T08:03:34;99935.61;;;29.32;39.33
62592;BME280;48659;41.622;2.276;2023-07-30T08:06:01;99938.89;;;28.03;43.36
62592;BME280;48659;41.622;2.276;2023-07-30T08:08:29;99943.67;;;29.03;41.81
62592;BME280;48659;41.622;2.276;2023-07-30T08:10:57;99945.89;;;29.14;41.55
62592;BME280;48659;41.622;2.276;2023-07-30T08:13:25;99942.95;;;29.91;40.60
62592;BME280;48659;41.622;2.276;2023-07-30T08:15:52;99946.45;;;30.25;39.64
62592;BME280;48659;41.622;2.276;2023-07-30T08:18:24;99947.34;;;29.81;39.74
62592;BME280;48659;41.622;2.276;2023-07-30T08:20:52;99951.38;;;28.94;42.37
62592;BME280;48659;41.622;2.276;2023-07-30T08:23:24;99944.16;;;29.69;40.32
62592;BME280;48659;41.622;2.276;2023-07-30T08:25:52;99949.88;;;29.74;41.63
62592;BME280;48659;41.622;2.276;2023-07-30T08:28:23;99949.51;;;29.72;40.61
62592;BME280;48659;41.622;2.276;2023-07-30T08:30:51;99950.55;;;30.40;39.12
62592;BME280;48659;41.622;2.276;2023-07-30T08:33:24;99953.05;;;29.30;40.06
62592;BME280;48659;41.622;2.276;2023-07-30T08:35:55;99952.39;;;28.44;42.38
62592;BME280;48659;41.622;2.276;2023-07-30T08:38:23;99947.51;;;31.03;38.84
62592;BME280;48659;41.622;2.276;2023-07-30T08:40:50;99951.86;;;28.19;42.54
62592;BME280;48659;41.622;2.276;2023-07-30T08:43:19;99950.22;;;27.48;45.09
62592;BME280;48659;41.622;2.276;2023-07-30T08:45:46;99945.47;;;29.41;42.90
62592;BME280;48659;41.622;2.276;2023-07-30T08:48:24;99943.75;;;28.34;44.34
62592;BME280;48659;41.622;2.276;2023-07-30T08:50:54;99942.89;;;29.87;40.75
62592;BME280;48659;41.622;2.276;2023-07-30T08:53:23;99944.77;;;29.64;41.56
62592;BME280;48659;41.622;2.276;2023-07-30T08:55:52;99945.55;;;28.03;43.00
62592;BME280;48659;41.622;2.276;2023-07-30T08:58:25;99937.36;;;29.57;40.03
62592;BME280;48659;41.622;2.276;2023-07-30T09:00:55;99941.77;;;28.49;42.27
62592;BME280;48659;41.622;2.276;2023-07-30T09:03:27;99945.64;;;27.71;44.13
62592;BME280;48659;41.622;2.276;2023-07-30T09:05:55;99947.77;;;28.40;43.13
62592;BME280;48659;41.622;2.276;2023-07-30T09:16:48;99952.21;;;28.54;43.56
62592;BME280;48659;41.622;2.276;2023-07-30T09:19:19;99948.38;;;29.10;41.90
62592;BME280;48659;41.622;2.276;2023-07-30T09:21:46;99947.19;;;30.96;39.16
62592;BME280;48659;41.622;2.276;2023-07-30T09:24:21;99945.42;;;29.48;41.98
62592;BME280;48659;41.622;2.276;2023-07-30T09:26:48;99943.56;;;31.03;40.26
62592;BME280;48659;41.622;2.276;2023-07-30T09:29:16;99942.85;;;30.60;40.47
62592;BME280;48659;41.622;2.276;2023-07-30T09:31:47;99945.03;;;29.72;41.49
62592;BME280;48659;41.622;2.276;2023-07-30T09:34:16;99942.74;;;31.94;38.66
62592;BME280;48659;41.622;2.276;2023-07-30T09:36:46;99942.37;;;30.65;39.75
62592;BME280;48659;41.622;2.276;2023-07-30T09:39:15;99941.16;;;31.55;38.79
62592;BME280;48659;41.622;2.276;2023-07-30T09:41:49;99940.24;;;31.94;37.40
62592;BME280;48659;41.622;2.276;2023-07-30T09:44:17;99936.23;;;30.76;39.31
62592;BME280;48659;41.622;2.276;2023-07-30T09:46:47;99943.51;;;28.04;44.54
62592;BME280;48659;41.622;2.276;2023-07-30T09:49:15;99941.61;;;28.86;42.29
62592;BME280;48659;41.622;2.276;2023-07-30T09:51:48;99947.26;;;27.21;46.05
62592;BME280;48659;41.622;2.276;2023-07-30T09:54:16;99940.71;;;28.95;42.07
62592;BME280;48659;41.622;2.276;2023-07-30T09:56:49;99942.94;;;29.61;40.30
62592;BME280;48659;41.622;2.276;2023-07-30T09:59:17;99943.36;;;30.01;38.08
62592;BME280;48659;41.622;2.276;2023-07-30T10:01:48;99943.92;;;30.79;36.98
62592;BME280;48659;41.622;2.276;2023-07-30T10:04:18;99943.30;;;30.47;37.15
62592;BME280;48659;41.622;2.276;2023-07-30T10:06:51;99939.35;;;30.79;36.53
62592;BME280;48659;41.622;2.276;2023-07-30T10:09:20;99941.53;;;31.65;35.30
62592;BME280;48659;41.622;2.276;2023-07-30T10:11:50;99946.33;;;31.00;35.70
62592;BME280;48659;41.622;2.276;2023-07-30T10:14:21;99951.58;;;30.11;37.25
62592;BME280;48659;41.622;2.276;2023-07-30T10:16:52;99955.38;;;30.59;36.52
62592;BME280;48659;41.622;2.276;2023-07-30T10:19:22;99962.95;;;29.69;37.51
62592;BME280;48659;41.622;2.276;2023-07-30T10:21:50;99958.71;;;32.02;34.80
62592;BME280;48659;41.622;2.276;2023-07-30T10:24:17;99958.16;;;30.85;34.88
62592;BME280;48659;41.622;2.276;2023-07-30T10:26:46;99962.89;;;30.65;35.61
62592;BME280;48659;41.622;2.276;2023-07-30T10:29:16;99960.30;;;30.55;35.43
62592;BME280;48659;41.622;2.276;2023-07-30T10:31:53;99957.12;;;31.27;34.39
62592;BME280;48659;41.622;2.276;2023-07-30T10:34:21;99960.66;;;30.34;35.58
62592;BME280;48659;41.622;2.276;2023-07-30T10:36:50;99958.74;;;31.32;33.23
62592;BME280;48659;41.622;2.276;2023-07-30T10:39:19;99958.16;;;30.51;33.96
62592;BME280;48659;41.622;2.276;2023-07-30T10:41:49;99955.38;;;31.52;32.65
62592;BME280;48659;41.622;2.276;2023-07-30T10:44:19;99958.04;;;30.92;33.26
62592;BME280;48659;41.622;2.276;2023-07-30T10:46:49;99952.00;;;30.65;32.75
62592;BME280;48659;41.622;2.276;2023-07-30T10:49:16;99957.03;;;29.44;34.67
62592;BME280;48659;41.622;2.276;2023-07-30T10:51:44;99951.88;;;31.29;32.19
62592;BME280;48659;41.622;2.276;2023-07-30T10:54:12;99951.60;;;29.52;33.42
62592;BME280;48659;41.622;2.276;2023-07-30T10:56:47;99956.07;;;29.96;33.17
62592;BME280;48659;41.622;2.276;2023-07-30T10:59:15;99949.78;;;31.05;31.89
62592;BME280;48659;41.622;2.276;2023-07-30T11:01:44;99951.11;;;29.34;33.18
62592;BME280;48659;41.622;2.276;2023-07-30T11:04:13;99952.95;;;29.82;32.41
62592;BME280;48659;41.622;2.276;2023-07-30T11:06:49;99953.06;;;29.52;33.21
62592;BME280;48659;41.622;2.276;2023-07-30T11:09:19;99953.45;;;31.68;30.00
62592;BME280;48659;41.622;2.276;2023-07-30T11:11:47;99951.66;;;31.32;30.12
62592;BME280;48659;41.622;2.276;2023-07-30T11:14:16;99952.87;;;31.98;29.52
62592;BME280;48659;41.622;2.276;2023-07-30T11:16:48;99951.15;;;30.87;30.42
62592;BME280;48659;41.622;2.276;2023-07-30T11:19:16;99955.33;;;32.29;29.23
62592;BME280;48659;41.622;2.276;2023-07-30T11:21:48;99952.05;;;32.57;28.96
62592;BME280;48659;41.622;2.276;2023-07-30T11:24:16;99953.01;;;31.68;29.86
62592;BME280;48659;41.622;2.276;2023-07-30T11:26:44;99951.87;;;32.68;28.90
62592;BME280;48659;41.622;2.276;2023-07-30T11:29:15;99953.85;;;32.37;29.09
62592;BME280;48659;41.622;2.276;2023-07-30T11:31:47;99949.17;;;31.88;29.67
62592;BME280;48659;41.622;2.276;2023-07-30T11:34:15;99948.69;;;30.79;31.11
62592;BME280;48659;41.622;2.276;2023-07-30T11:36:48;99945.53;;;32.37;29.61
62592;BME280;48659;41.622;2.276;2023-07-30T11:39:16;99942.55;;;32.96;28.90
62592;BME280;48659;41.622;2.276;2023-07-30T11:41:48;99937.04;;;32.95;29.17
62592;BME280;48659;41.622;2.276;2023-07-30T11:44:30;99937.46;;;32.09;30.35
62592;BME280;48659;41.622;2.276;2023-07-30T11:46:58;99937.98;;;32.30;29.68
62592;BME280;48659;41.622;2.276;2023-07-30T11:49:25;99931.88;;;31.28;30.63
62592;BME280;48659;41.622;2.276;2023-07-30T11:52:05;99936.32;;;32.38;29.52
62592;BME280;48659;41.622;2.276;2023-07-30T11:54:32;99931.75;;;31.63;30.19
62592;BME280;48659;41.622;2.276;2023-07-30T11:57:00;99930.09;;;30.12;32.08
62592;BME280;48659;41.622;2.276;2023-07-30T11:59:27;99925.76;;;30.82;31.67
62592;BME280;48659;41.622;2.276;2023-07-30T12:01:55;99923.35;;;32.77;29.50
62592;BME280;48659;41.622;2.276;2023-07-30T12:04:23;99921.13;;;32.31;30.04
62592;BME280;48659;41.622;2.276;2023-07-30T12:06:52;99916.67;;;33.08;28.84
62592;BME280;48659;41.622;2.276;2023-07-30T12:09:20;99917.13;;;31.94;29.73
62592;BME280;48659;41.622;2.276;2023-07-30T12:11:50;99915.31;;;32.37;29.12
62592;BME280;48659;41.622;2.276;2023-07-30T12:14:18;99912.63;;;33.55;28.03
62592;BME280;48659;41.622;2.276;2023-07-30T12:16:47;99918.83;;;32.54;29.68
62592;BME280;48659;41.622;2.276;2023-07-30T12:19:15;99916.19;;;32.74;29.43
62592;BME280;48659;41.622;2.276;2023-07-30T12:21:48;99913.09;;;29.99;33.35
62592;BME280;48659;41.622;2.276;2023-07-30T12:24:15;99916.12;;;32.04;30.65
62592;BME280;48659;41.622;2.276;2023-07-30T12:26:47;99900.49;;;32.33;29.89
62592;BME280;48659;41.622;2.276;2023-07-30T12:29:15;99899.57;;;31.09;31.86
62592;BME280;48659;41.622;2.276;2023-07-30T12:31:48;99898.33;;;31.18;31.87
62592;BME280;48659;41.622;2.276;2023-07-30T12:34:16;99894.46;;;32.64;29.62
62592;BME280;48659;41.622;2.276;2023-07-30T12:36:47;99897.88;;;32.45;30.12
62592;BME280;48659;41.622;2.276;2023-07-30T12:39:15;99889.78;;;33.89;27.89
62592;BME280;48659;41.622;2.276;2023-07-30T12:41:49;99893.35;;;32.49;29.78
62592;BME280;48659;41.622;2.276;2023-07-30T12:44:16;99882.24;;;34.08;27.95
62592;BME280;48659;41.622;2.276;2023-07-30T12:46:46;99882.10;;;32.91;29.16
62592;BME280;48659;41.622;2.276;2023-07-30T12:49:14;99890.38;;;31.84;30.83
62592;BME280;48659;41.622;2.276;2023-07-30T12:51:41;99892.04;;;32.89;30.21
62592;BME280;48659;41.622;2.276;2023-07-30T12:54:09;99882.11;;;32.52;30.12
62592;BME280;48659;41.622;2.276;2023-07-30T12:56:36;99879.07;;;33.00;29.83
62592;BME280;48659;41.622;2.276;2023-07-30T12:59:04;99891.28;;;32.23;30.47
62592;BME280;48659;41.622;2.276;2023-07-30T13:01:32;99883.93;;;33.59;28.77
62592;BME280;48659;41.622;2.276;2023-07-30T13:03:59;99880.50;;;32.84;29.84
62592;BME280;48659;41.622;2.276;2023-07-30T13:06:27;99891.03;;;31.64;31.93
62592;BME280;48659;41.622;2.276;2023-07-30T13:08:55;99885.66;;;32.40;30.96
62592;BME280;48659;41.622;2.276;2023-07-30T13:11:22;99889.33;;;31.51;31.92
62592;BME280;48659;41.622;2.276;2023-07-30T13:13:50;99890.03;;;31.68;31.74
62592;BME280;48659;41.622;2.276;2023-07-30T13:16:18;99883.94;;;32.14;31.09
62592;BME280;48659;41.622;2.276;2023-07-30T13:18:46;99878.74;;;32.75;30.21